Time;durP1;ratioP1;P1;durP2;ratioP2;P2;SDS_P1;SDS_P2;PMS_P1;PMS_P2;Temp;Humidity;BMP_temperature;BMP_pressure;BME280_temperature;BME280_humidity;BME280_pressure;Samples;Min_cycle;Max_cycle;Signal;HPM_P1;HPM_P2
2024/02/09 00:01:12;;;;;;;14.95;4.30;;;;;;;11.39;75.37;98214.50;3126736;22;20027;-78
2024/02/09 00:02:27;;;;;;;15.80;4.88;;;;;;;11.40;75.02;98220.56;3127629;23;20043;-79
2024/02/09 00:03:43;;;;;;;26.90;4.38;;;;;;;11.40;75.22;98218.78;3127482;23;20390;-78
2024/02/09 00:04:57;;;;;;;13.52;4.72;;;;;;;11.39;75.22;98214.50;3127197;22;20028;-77
2024/02/09 00:06:11;;;;;;;21.20;8.68;;;;;;;11.39;74.86;98217.13;3127538;23;20024;-77
2024/02/09 00:07:25;;;;;;;14.88;4.20;;;;;;;11.40;75.26;98213.56;3127066;23;20095;-78
2024/02/09 00:08:40;;;;;;;22.25;4.80;;;;;;;11.40;75.63;98218.78;3126743;22;20043;-78
2024/02/09 00:09:55;;;;;;;12.95;4.80;;;;;;;11.39;75.48;98224.13;3126813;23;20079;-79
2024/02/09 00:11:11;;;;;;;12.80;5.45;;;;;;;11.38;75.61;98219.78;3127116;23;20025;-78
2024/02/09 00:12:25;;;;;;;16.25;3.50;;;;;;;11.35;75.58;98224.25;3127337;23;20024;-78
2024/02/09 00:13:42;;;;;;;12.52;4.40;;;;;;;11.34;75.44;98219.13;3125373;22;20024;-77
2024/02/09 00:14:57;;;;;;;11.15;3.83;;;;;;;11.33;75.53;98223.50;3126370;23;20451;-78
2024/02/09 00:16:12;;;;;;;8.50;4.05;;;;;;;11.32;75.55;98216.56;3126935;23;20027;-77
2024/02/09 00:17:25;;;;;;;14.00;4.88;;;;;;;11.31;75.70;98221.88;3126354;22;20105;-77
2024/02/09 00:18:40;;;;;;;19.27;4.57;;;;;;;11.29;75.99;98221.94;3125925;23;20107;-78
2024/02/09 00:19:55;;;;;;;13.45;5.28;;;;;;;11.27;76.20;98218.56;3126261;23;20099;-79
2024/02/09 00:21:10;;;;;;;8.65;4.72;;;;;;;11.26;76.30;98218.66;3126062;22;20020;-77
2024/02/09 00:22:25;;;;;;;7.43;3.78;;;;;;;11.25;76.35;98215.19;3127304;23;20044;-77
2024/02/09 00:23:38;;;;;;;28.27;8.45;;;;;;;11.24;76.39;98226.56;3127975;23;20029;-76
2024/02/09 00:24:54;;;;;;;18.67;4.40;;;;;;;11.24;76.29;98223.09;3125284;22;20020;-77
2024/02/09 00:26:07;;;;;;;20.15;4.70;;;;;;;11.23;76.45;98229.22;3126649;23;20032;-79
2024/02/09 00:27:22;;;;;;;15.38;4.00;;;;;;;11.23;76.48;98216.19;3126762;23;20020;-77
2024/02/09 00:28:35;;;;;;;27.77;5.47;;;;;;;11.20;76.63;98217.19;3126864;23;20043;-78
2024/02/09 00:29:52;;;;;;;17.25;4.57;;;;;;;11.18;76.44;98229.47;3126547;23;20036;-78
2024/02/09 00:31:05;;;;;;;12.15;4.07;;;;;;;11.17;76.78;98217.34;3127008;23;20100;-78
2024/02/09 00:32:20;;;;;;;14.63;4.20;;;;;;;11.14;77.03;98220.94;3127259;23;20029;-78
2024/02/09 00:33:33;;;;;;;6.70;3.72;;;;;;;11.11;77.26;98218.50;3126520;22;20019;-77
2024/02/09 00:34:48;;;;;;;14.52;5.10;;;;;;;11.08;77.38;98212.59;3127329;23;20091;-78
2024/02/09 00:36:03;;;;;;;17.38;4.18;;;;;;;11.04;77.53;98221.47;3127131;23;20032;-77
2024/02/09 00:37:21;;;;;;;14.40;4.35;;;;;;;11.01;77.77;98219.03;3126337;22;20417;-78
2024/02/09 00:38:37;;;;;;;20.58;5.78;;;;;;;10.98;78.00;98219.19;3127802;23;20021;-78
2024/02/09 00:39:51;;;;;;;16.25;5.28;;;;;;;10.95;78.19;98212.34;3127398;23;20024;-79
2024/02/09 00:41:07;;;;;;;16.27;4.85;;;;;;;10.92;78.36;98207.28;3126994;22;20349;-79
2024/02/09 00:42:21;;;;;;;10.30;5.25;;;;;;;10.89;78.47;98207.41;3128905;23;20020;-77
2024/02/09 00:43:35;;;;;;;11.02;5.57;;;;;;;10.87;78.91;98204.06;3126611;23;20020;-78
2024/02/09 00:44:50;;;;;;;12.43;4.15;;;;;;;10.84;78.55;98206.78;3126553;22;20103;-78
2024/02/09 00:46:03;;;;;;;7.65;5.00;;;;;;;10.83;78.77;98199.91;3126967;23;20044;-78
2024/02/09 00:47:18;;;;;;;14.77;3.90;;;;;;;10.80;78.87;98198.28;3126983;23;20091;-78
2024/02/09 00:48:31;;;;;;;14.05;4.43;;;;;;;10.79;79.23;98196.59;3126748;23;20024;-77
2024/02/09 00:49:46;;;;;;;13.90;5.55;;;;;;;10.77;79.19;98205.44;3126409;22;20091;-79
2024/02/09 00:51:00;;;;;;;12.82;4.45;;;;;;;10.75;79.39;98208.09;3131876;23;20067;-78
2024/02/09 00:52:16;;;;;;;10.80;4.40;;;;;;;10.73;79.54;98202.09;3127161;23;20028;-78
2024/02/09 00:53:29;;;;;;;16.15;4.20;;;;;;;10.69;79.82;98201.41;3126521;22;20024;-78
2024/02/09 00:54:44;;;;;;;16.90;3.85;;;;;;;10.68;79.86;98204.09;3127142;23;20428;-78
2024/02/09 00:55:59;;;;;;;12.38;3.90;;;;;;;10.66;79.92;98205.91;3131894;23;20077;-78
2024/02/09 00:57:14;;;;;;;12.27;4.40;;;;;;;10.64;80.31;98202.56;3126382;22;20020;-78
2024/02/09 00:58:28;;;;;;;14.48;4.70;;;;;;;10.62;80.24;98204.41;3127158;23;20020;-77
2024/02/09 00:59:43;;;;;;;11.20;4.70;;;;;;;10.59;80.48;98210.59;3126771;23;20369;-77
2024/02/09 01:00:56;;;;;;;19.20;5.78;;;;;;;10.55;80.43;98198.63;3125926;22;20036;-79
2024/02/09 01:02:11;;;;;;;22.20;5.30;;;;;;;10.52;80.71;98203.13;3126993;23;20020;-78
2024/02/09 01:03:24;;;;;;;9.35;3.90;;;;;;;10.50;80.65;98205.81;3126895;23;20379;-77
2024/02/09 01:04:39;;;;;;;11.00;4.25;;;;;;;10.46;80.72;98204.28;3131360;22;20080;-78
2024/02/09 01:05:53;;;;;;;13.90;3.95;;;;;;;10.45;81.01;98203.44;3127125;23;20485;-78
2024/02/09 01:07:10;;;;;;;12.88;3.50;;;;;;;10.42;81.11;98203.56;3126693;23;20027;-78
2024/02/09 01:08:27;;;;;;;14.25;6.40;;;;;;;10.40;81.16;98199.34;3126838;23;20020;-78
2024/02/09 01:09:42;;;;;;;9.55;4.22;;;;;;;10.37;81.36;98192.50;3126371;22;20364;-78
2024/02/09 01:10:55;;;;;;;9.40;4.75;;;;;;;10.36;81.58;98185.63;3127163;23;20024;-78
2024/02/09 02:45:42;;;;;;;12.95;6.13;;;;;;;9.11;87.51;98091.41;3144789;22;20028;-77
2024/02/09 02:46:55;;;;;;;19.90;7.00;;;;;;;9.11;87.55;98086.22;3145298;23;20024;-78
2024/02/09 03:05:14;;;;;;;11.60;5.65;;;;;;;9.16;88.26;98054.75;3146266;22;20458;-78
2024/02/09 03:06:28;;;;;;;15.23;5.85;;;;;;;9.16;88.29;98050.41;3143397;23;20073;-78
2024/02/09 03:07:42;;;;;;;16.38;6.93;;;;;;;9.16;88.42;98053.03;3143730;23;20024;-78
2024/02/09 03:08:56;;;;;;;15.52;5.85;;;;;;;9.18;88.31;98047.72;3146657;22;20027;-78
2024/02/09 03:10:11;;;;;;;12.35;6.55;;;;;;;9.20;88.39;98045.06;3144203;23;20099;-77
2024/02/09 03:11:24;;;;;;;15.48;7.13;;;;;;;9.21;88.41;98049.34;3143331;23;20024;-78
2024/02/09 03:12:40;;;;;;;20.52;6.50;;;;;;;9.23;88.44;98039.72;3143722;22;20096;-77
2024/02/09 03:13:53;;;;;;;20.05;7.65;;;;;;;9.24;88.73;98038.81;3144420;23;20041;-78
2024/02/09 03:15:09;;;;;;;17.52;6.57;;;;;;;9.24;88.48;98037.06;3144667;23;20095;-78
2024/02/09 03:16:23;;;;;;;14.35;5.35;;;;;;;9.26;88.56;98031.78;3144259;23;20091;-78
2024/02/09 03:17:38;;;;;;;18.63;7.30;;;;;;;9.26;88.55;98030.00;3144294;22;20111;-79
2024/02/09 03:18:52;;;;;;;19.83;7.60;;;;;;;9.26;88.61;98023.97;3144456;23;20299;-79
2024/02/09 03:20:08;;;;;;;12.95;6.10;;;;;;;9.26;88.49;98032.63;3148891;23;20024;-79
2024/02/09 03:21:26;;;;;;;16.25;7.68;;;;;;;9.25;88.50;98024.91;3143415;22;20039;-78
2024/02/09 03:22:41;;;;;;;14.20;6.95;;;;;;;9.27;88.70;98033.47;3144173;23;20408;-79
2024/02/09 03:23:56;;;;;;;10.98;6.65;;;;;;;9.27;88.62;98029.13;3144354;23;20019;-78
2024/02/09 03:25:10;;;;;;;16.98;6.63;;;;;;;9.27;88.71;98023.06;3143805;22;20510;-78
2024/02/09 03:26:24;;;;;;;16.10;7.18;;;;;;;9.28;88.65;98025.59;3149009;23;20027;-78
2024/02/09 03:27:40;;;;;;;16.02;6.60;;;;;;;9.29;88.80;98021.22;3144239;23;20072;-79
2024/02/09 03:28:55;;;;;;;18.85;6.32;;;;;;;9.28;88.58;98019.53;3143999;22;20020;-78
2024/02/09 03:30:10;;;;;;;15.55;6.18;;;;;;;9.27;88.58;98015.25;3144310;23;20023;-78
2024/02/09 03:31:25;;;;;;;21.02;6.82;;;;;;;9.26;88.60;98014.41;3144196;23;20027;-79
2024/02/09 03:32:44;;;;;;;13.07;6.10;;;;;;;9.24;88.69;98011.03;3144090;22;20024;-79
2024/02/09 03:33:57;;;;;;;20.80;6.40;;;;;;;9.24;88.66;98012.78;3144734;23;20031;-79
2024/02/09 03:35:13;;;;;;;36.05;8.10;;;;;;;9.25;88.61;98012.72;3145788;23;20024;-79
2024/02/09 03:36:26;;;;;;;16.83;7.40;;;;;;;9.26;88.53;98005.75;3149951;23;20169;-79
2024/02/09 03:37:44;;;;;;;17.52;6.85;;;;;;;9.26;88.60;98010.97;3143417;22;20020;-79
2024/02/09 03:38:58;;;;;;;15.35;5.75;;;;;;;9.26;88.59;98009.19;3144727;23;20028;-79
2024/02/09 03:40:13;;;;;;;13.77;6.43;;;;;;;9.26;88.65;98014.41;3148863;23;20354;-79
2024/02/09 03:41:26;;;;;;;22.05;8.07;;;;;;;9.25;88.58;98012.72;3143174;22;20030;-78
2024/02/09 03:42:42;;;;;;;17.30;8.80;;;;;;;9.26;88.73;98006.59;3144068;23;20035;-78
2024/02/09 03:44:03;;;;;;;12.85;6.78;;;;;;;9.26;88.90;98005.75;3144327;23;20024;-79
2024/02/09 03:45:18;;;;;;;15.30;7.50;;;;;;;9.26;88.79;98003.97;3143667;22;20092;-78
2024/02/09 03:46:32;;;;;;;14.15;6.78;;;;;;;9.25;88.65;98007.50;3148673;23;20016;-78
2024/02/09 03:47:46;;;;;;;14.57;6.57;;;;;;;9.24;88.67;98008.44;3143886;23;20020;-77
2024/02/09 03:49:00;;;;;;;20.05;8.90;;;;;;;9.25;88.75;98009.28;3143684;22;20020;-79
2024/02/09 03:50:15;;;;;;;13.30;6.65;;;;;;;9.26;88.92;98005.75;3144467;23;20076;-79
2024/02/09 03:51:28;;;;;;;20.63;6.57;;;;;;;9.26;88.90;98008.34;3144310;23;20031;-79
2024/02/09 03:52:44;;;;;;;17.38;8.43;;;;;;;9.25;88.84;98006.69;3143880;22;20036;-78
2024/02/09 03:53:59;;;;;;;17.27;8.00;;;;;;;9.25;88.88;98010.13;3143893;23;20482;-79
2024/02/09 03:55:16;;;;;;;17.02;8.02;;;;;;;9.25;88.83;98011.88;3144449;23;20023;-79
2024/02/09 03:56:30;;;;;;;16.17;6.88;;;;;;;9.24;88.83;98013.66;3144319;23;20031;-79
2024/02/09 03:57:46;;;;;;;18.20;8.65;;;;;;;9.25;88.89;98020.53;3143541;22;20035;-78
2024/02/09 03:58:59;;;;;;;21.10;6.95;;;;;;;9.24;88.96;98020.59;3144576;23;20028;-79
2024/02/09 04:00:15;;;;;;;17.90;7.80;;;;;;;9.24;89.04;98010.19;3144133;23;20047;-78
2024/02/09 04:01:28;;;;;;;22.17;7.43;;;;;;;9.23;88.86;98019.75;3143706;22;20510;-79
2024/02/09 04:02:43;;;;;;;18.10;7.85;;;;;;;9.23;88.94;98021.50;3143892;23;20024;-78
2024/02/09 04:03:57;;;;;;;12.20;7.32;;;;;;;9.22;88.79;98006.81;3144151;22;20095;-78
2024/02/09 04:05:11;;;;;;;19.92;6.93;;;;;;;9.22;88.90;98012.03;3143481;22;20493;-79
2024/02/09 04:06:25;;;;;;;18.17;8.90;;;;;;;9.23;89.01;98016.31;3143977;23;20355;-79
2024/02/09 04:07:39;;;;;;;15.80;7.35;;;;;;;9.22;88.77;98007.66;3143755;23;20071;-78
2024/02/09 04:08:54;;;;;;;20.80;9.43;;;;;;;9.23;88.96;98016.31;3144063;22;20020;-78
2024/02/09 04:10:09;;;;;;;14.68;8.02;;;;;;;9.23;88.89;98008.50;3144473;23;20024;-79
2024/02/09 04:11:23;;;;;;;16.42;7.15;;;;;;;9.22;88.86;98010.25;3144004;22;20020;-79
2024/02/09 04:12:38;;;;;;;14.60;7.88;;;;;;;9.22;88.77;98010.25;3144222;22;20155;-79
2024/02/09 04:13:53;;;;;;;20.20;7.47;;;;;;;9.22;88.92;98009.44;3143329;23;20027;-80
2024/02/09 04:15:08;;;;;;;13.63;8.07;;;;;;;9.22;88.82;98017.22;3149459;23;20020;-79
2024/02/09 04:16:21;;;;;;;16.88;8.13;;;;;;;9.23;89.01;98009.34;3143859;23;20027;-79
2024/02/09 04:17:36;;;;;;;16.08;8.65;;;;;;;9.22;88.97;98012.88;3143438;22;20099;-79
2024/02/09 04:18:49;;;;;;;14.88;7.70;;;;;;;9.22;88.99;98004.22;3144508;23;20020;-79
2024/02/09 04:20:04;;;;;;;21.58;8.98;;;;;;;9.21;88.87;98002.50;3145060;23;20494;-78
2024/02/09 04:21:17;;;;;;;13.50;8.30;;;;;;;9.21;88.88;98011.16;3143539;22;20024;-79
2024/02/09 04:22:32;;;;;;;15.38;8.00;;;;;;;9.21;89.03;98002.50;3145116;23;20095;-79
2024/02/09 04:23:46;;;;;;;15.60;7.60;;;;;;;9.20;89.01;98003.44;3143656;23;20024;-79
2024/02/09 04:25:01;;;;;;;20.23;8.30;;;;;;;9.19;88.98;98000.00;3144534;22;20392;-79
2024/02/09 04:26:14;;;;;;;13.00;7.82;;;;;;;9.17;89.00;97997.44;3144273;23;20024;-78
2024/02/09 04:27:29;;;;;;;21.65;8.43;;;;;;;9.19;88.84;98002.59;3145412;23;20115;-77
2024/02/09 04:28:42;;;;;;;17.70;8.50;;;;;;;9.18;88.98;98006.94;3144173;22;20020;-77
2024/02/09 04:29:58;;;;;;;24.35;10.95;;;;;;;9.18;88.99;98000.91;3144797;23;20024;-78
2024/02/09 04:31:11;;;;;;;19.17;8.10;;;;;;;9.16;88.83;98006.19;3144152;23;20024;-79
2024/02/09 04:32:26;;;;;;;15.10;9.23;;;;;;;9.15;88.95;98004.47;3145040;23;20095;-78
2024/02/09 04:33:40;;;;;;;12.48;8.05;;;;;;;9.16;88.93;98005.31;3143759;22;20028;-78
2024/02/09 04:34:54;;;;;;;18.83;8.02;;;;;;;9.15;88.76;98004.47;3145217;23;20503;-79
2024/02/09 04:36:08;;;;;;;19.83;9.27;;;;;;;9.14;88.86;98008.00;3144298;23;20024;-79
2024/02/09 04:37:22;;;;;;;15.38;7.78;;;;;;;9.15;89.00;98006.25;3144101;22;20044;-78
2024/02/09 04:38:40;;;;;;;20.80;10.07;;;;;;;9.14;89.11;98000.19;3143796;23;20020;-78
2024/02/09 04:39:55;;;;;;;13.02;8.05;;;;;;;9.16;89.02;97990.56;3144488;23;20063;-79
2024/02/09 04:41:08;;;;;;;21.52;8.32;;;;;;;9.15;88.89;97995.84;3143587;22;20023;-78
2024/02/09 04:42:23;;;;;;;20.98;8.82;;;;;;;9.16;88.93;97992.31;3144907;23;20096;-79
2024/02/09 04:43:36;;;;;;;17.67;8.10;;;;;;;9.16;88.98;97989.72;3144016;23;20027;-78
2024/02/09 04:44:50;;;;;;;22.73;10.95;;;;;;;9.15;88.99;97991.47;3143652;22;20048;-78
2024/02/09 04:46:05;;;;;;;17.65;8.55;;;;;;;9.16;89.10;97989.72;3144531;23;20031;-79
2024/02/09 04:47:20;;;;;;;20.52;9.00;;;;;;;9.15;89.01;97988.03;3144202;23;20024;-78
2024/02/09 04:48:33;;;;;;;15.70;8.93;;;;;;;9.14;88.91;97989.78;3144653;23;20093;-79
2024/02/09 04:49:49;;;;;;;15.88;10.10;;;;;;;9.14;89.09;97992.41;3142593;22;20090;-78
2024/02/09 04:51:06;;;;;;;18.17;8.57;;;;;;;9.12;88.96;97999.41;3144588;23;20023;-78
2024/02/09 04:52:21;;;;;;;24.38;8.23;;;;;;;9.13;89.02;97990.69;3144291;23;20455;-79
2024/02/09 04:53:35;;;;;;;13.80;8.48;;;;;;;9.13;89.07;97992.44;3144112;22;20394;-78
2024/02/09 04:54:48;;;;;;;17.73;9.68;;;;;;;9.13;89.18;97988.09;3144524;23;20027;-79
2024/02/09 04:56:03;;;;;;;25.05;9.52;;;;;;;9.14;89.09;97991.56;3145031;23;20590;-79
2024/02/09 04:57:21;;;;;;;16.55;8.93;;;;;;;9.14;88.98;97986.34;3143509;22;20023;-77
2024/02/09 04:58:35;;;;;;;17.05;8.82;;;;;;;9.12;89.11;97983.81;3145173;23;20027;-79
2024/02/09 04:59:50;;;;;;;15.05;9.15;;;;;;;9.13;89.07;97982.03;3143786;23;20020;-79
2024/02/09 05:01:05;;;;;;;20.15;8.95;;;;;;;9.12;89.09;97983.81;3143753;22;20016;-79
2024/02/09 05:02:19;;;;;;;21.33;9.45;;;;;;;9.14;89.06;97978.53;3144593;23;20020;-78
2024/02/09 05:03:34;;;;;;;19.95;9.20;;;;;;;9.13;89.14;97974.25;3145209;23;20127;-78
2024/02/09 05:04:47;;;;;;;17.63;8.20;;;;;;;9.14;89.17;97982.00;3143777;22;20324;-78
2024/02/09 05:06:02;;;;;;;24.73;9.93;;;;;;;9.14;89.15;97979.38;3144470;23;20098;-79
2024/02/09 05:07:15;;;;;;;13.48;7.75;;;;;;;9.13;89.13;97969.88;3144031;23;20024;-77
2024/02/09 05:08:30;;;;;;;16.92;8.38;;;;;;;9.13;89.09;97974.25;3144642;23;20314;-79
2024/02/09 05:09:44;;;;;;;19.92;9.10;;;;;;;9.13;89.10;97974.25;3143697;22;20086;-79
2024/02/09 05:10:58;;;;;;;17.77;7.40;;;;;;;9.12;89.28;97973.41;3143938;22;20437;-78
2024/02/09 05:12:11;;;;;;;16.38;7.72;;;;;;;9.12;89.04;97976.00;3144414;23;20024;-79
2024/02/09 05:13:26;;;;;;;19.58;9.23;;;;;;;9.11;89.12;97976.06;3143243;22;20099;-77
2024/02/09 05:14:39;;;;;;;16.38;9.75;;;;;;;9.11;89.07;97974.31;3144569;23;20024;-78
2024/02/09 05:15:54;;;;;;;26.60;9.27;;;;;;;9.12;89.01;97969.97;3144500;23;20058;-79
2024/02/09 05:17:07;;;;;;;18.52;9.07;;;;;;;9.11;89.19;97966.53;3143976;22;20039;-79
2024/02/09 05:18:23;;;;;;;22.42;9.75;;;;;;;9.11;89.22;97956.13;3143958;23;20103;-79
2024/02/09 05:19:37;;;;;;;24.58;10.98;;;;;;;9.12;89.29;97956.94;3144692;23;20020;-77
2024/02/09 05:20:51;;;;;;;16.25;8.50;;;;;;;9.11;89.29;97961.31;3143177;22;20103;-79
2024/02/09 05:22:04;;;;;;;18.02;9.55;;;;;;;9.12;89.21;97960.38;3145123;23;20031;-79
2024/02/09 05:23:19;;;;;;;16.13;7.40;;;;;;;9.13;89.08;97956.03;3143748;23;20026;-77
2024/02/09 05:24:33;;;;;;;18.70;9.23;;;;;;;9.13;89.31;97964.66;3144749;23;20031;-78
2024/02/09 05:25:47;;;;;;;24.33;9.65;;;;;;;9.15;89.23;97962.84;3143700;22;20024;-77
2024/02/09 05:27:01;;;;;;;18.05;9.13;;;;;;;9.17;89.16;97957.59;3144904;23;20024;-79
2024/02/09 05:28:15;;;;;;;13.85;8.25;;;;;;;9.18;89.18;97965.31;3143511;23;20099;-77
2024/02/09 05:29:29;;;;;;;23.33;9.25;;;;;;;9.20;89.35;97965.25;3143629;22;20028;-78
2024/02/09 05:30:44;;;;;;;22.27;9.57;;;;;;;9.20;89.34;97962.63;3143768;23;20058;-78
2024/02/09 05:31:58;;;;;;;15.50;8.38;;;;;;;9.22;89.35;97959.97;3144641;23;20027;-79
2024/02/09 05:33:12;;;;;;;20.63;10.52;;;;;;;9.22;89.26;97963.41;3142994;22;20433;-79
2024/02/09 05:34:27;;;;;;;25.23;9.68;;;;;;;9.24;89.15;97968.53;3144192;23;20024;-78
2024/02/09 05:35:42;;;;;;;29.25;13.05;;;;;;;9.26;89.40;97969.31;3145071;23;20150;-79
2024/02/09 05:36:55;;;;;;;22.73;12.50;;;;;;;9.26;89.30;97962.34;3143668;22;20020;-78
2024/02/09 05:38:10;;;;;;;21.83;10.88;;;;;;;9.28;89.49;97973.53;3148858;22;20096;-78
2024/02/09 05:39:24;;;;;;;26.77;13.70;;;;;;;9.29;89.48;97971.78;3157479;22;20027;-79
2024/02/09 05:40:39;;;;;;;27.45;11.55;;;;;;;9.29;89.34;97966.56;3156749;22;20000;-78
2024/02/09 05:41:52;;;;;;;20.45;10.23;;;;;;;9.30;89.42;97963.06;3158016;23;20008;-77
2024/02/09 05:43:07;;;;;;;41.00;12.93;;;;;;;9.32;89.37;97969.03;3152058;23;20051;-79
2024/02/09 05:44:20;;;;;;;27.85;11.48;;;;;;;9.33;89.40;97963.75;3145448;23;20031;-79
2024/02/09 05:45:35;;;;;;;21.60;11.20;;;;;;;9.35;89.32;97967.13;3146091;22;20091;-79
2024/02/09 05:46:48;;;;;;;23.58;11.55;;;;;;;9.35;89.38;97972.34;3145389;23;20031;-79
2024/02/09 05:48:05;;;;;;;23.95;11.32;;;;;;;9.36;89.50;97965.38;3145443;23;20410;-78
2024/02/09 05:49:19;;;;;;;18.40;10.32;;;;;;;9.37;89.37;97961.84;3144227;22;20027;-78
2024/02/09 05:50:35;;;;;;;21.92;10.43;;;;;;;9.36;89.49;97961.00;3145200;23;20039;-79
2024/02/09 05:51:49;;;;;;;16.17;8.98;;;;;;;9.38;89.40;97966.16;3144978;23;20031;-79
2024/02/09 05:53:04;;;;;;;21.05;9.85;;;;;;;9.38;89.41;97960.94;3145525;22;20036;-78
2024/02/09 05:54:18;;;;;;;24.70;11.18;;;;;;;9.39;89.48;97965.22;3144222;23;20474;-79
2024/02/09 05:55:34;;;;;;;19.48;11.27;;;;;;;9.39;89.47;97970.44;3145658;23;20020;-79
2024/02/09 05:56:48;;;;;;;31.42;12.15;;;;;;;9.40;89.37;97964.31;3144186;22;20032;-78
2024/02/09 05:58:03;;;;;;;17.45;9.98;;;;;;;9.41;89.37;97971.22;3145369;23;20031;-79
2024/02/09 05:59:16;;;;;;;13.20;9.82;;;;;;;9.40;89.40;97977.34;3144848;23;20024;-79
2024/02/09 06:00:31;;;;;;;19.13;10.35;;;;;;;9.42;89.45;97978.09;3145322;23;20091;-79
2024/02/09 06:01:45;;;;;;;23.15;10.55;;;;;;;9.41;89.50;97979.03;3144477;22;20028;-79
2024/02/09 06:03:02;;;;;;;19.67;10.93;;;;;;;9.43;89.36;97973.75;3145220;23;20132;-78
2024/02/09 06:04:15;;;;;;;18.60;9.55;;;;;;;9.42;89.39;97980.69;3147847;23;20020;-79
2024/02/09 06:05:31;;;;;;;19.90;8.90;;;;;;;9.44;89.54;97980.63;3147839;22;20016;-79
2024/02/09 06:06:46;;;;;;;11.80;7.40;;;;;;;9.45;89.57;97982.31;3148971;23;20032;-79
2024/02/09 06:08:01;;;;;;;12.23;6.50;;;;;;;9.44;89.46;97981.47;3146941;23;20107;-79
2024/02/09 06:09:15;;;;;;;14.43;6.25;;;;;;;9.44;89.52;97980.63;3145766;22;20024;-79
2024/02/09 06:10:29;;;;;;;10.30;5.72;;;;;;;9.45;89.37;97974.50;3145004;23;20024;-79
2024/02/09 06:11:42;;;;;;;14.23;6.30;;;;;;;9.45;89.54;97969.28;3145489;23;20021;-79
2024/02/09 06:12:57;;;;;;;13.13;5.95;;;;;;;9.45;89.38;97980.56;3144041;22;20062;-79
2024/02/09 06:14:10;;;;;;;11.70;5.35;;;;;;;9.45;89.42;97983.19;3144531;23;20023;-78
2024/02/09 06:15:25;;;;;;;18.77;5.75;;;;;;;9.46;89.48;97978.81;3144147;23;20024;-79
2024/02/09 06:16:38;;;;;;;10.57;6.40;;;;;;;9.46;89.35;97987.47;3143941;22;20020;-79
2024/02/09 06:17:52;;;;;;;14.15;5.82;;;;;;;9.45;89.44;97980.56;3144531;23;20406;-79
2024/02/09 06:19:07;;;;;;;8.27;5.28;;;;;;;9.46;89.52;97982.25;3150458;23;20379;-80
2024/02/09 06:20:22;;;;;;;8.52;4.50;;;;;;;9.47;89.31;97983.94;3144162;23;20085;-79
2024/02/09 06:21:40;;;;;;;11.77;5.70;;;;;;;9.48;89.36;97979.59;3144356;22;20522;-78
2024/02/09 06:22:56;;;;;;;10.60;5.60;;;;;;;9.46;89.43;97974.44;3144958;23;20016;-78
2024/02/09 06:24:10;;;;;;;13.07;5.40;;;;;;;9.47;89.46;97972.69;3145460;23;20502;-78
2024/02/09 06:25:24;;;;;;;9.80;6.28;;;;;;;9.47;89.54;97978.72;3144257;22;20024;-78
2024/02/09 06:26:37;;;;;;;9.45;5.43;;;;;;;9.47;89.37;97977.88;3144903;23;20023;-79
2024/02/09 06:27:52;;;;;;;11.98;5.15;;;;;;;9.46;89.29;97982.25;3144417;23;20392;-78
2024/02/09 06:29:07;;;;;;;17.95;5.65;;;;;;;9.47;89.41;97972.69;3144384;22;20060;-78
2024/02/09 06:30:22;;;;;;;11.18;4.80;;;;;;;9.47;89.27;97978.72;3144816;22;20031;-78
2024/02/09 06:31:41;;;;;;;11.65;5.43;;;;;;;9.47;89.49;97981.31;3144314;23;20024;-79
2024/02/09 06:32:56;;;;;;;11.75;4.93;;;;;;;9.47;89.45;97977.88;3144821;22;20066;-78
2024/02/09 06:34:09;;;;;;;9.80;4.75;;;;;;;9.47;89.52;97973.50;3145069;23;20047;-79
2024/02/09 06:35:24;;;;;;;8.93;4.18;;;;;;;9.46;89.53;97969.22;3145424;23;20091;-79
2024/02/09 06:36:38;;;;;;;15.05;5.70;;;;;;;9.47;89.42;97973.50;3144212;22;20027;-78
2024/02/09 06:37:52;;;;;;;14.18;6.75;;;;;;;9.48;89.45;97971.78;3145517;22;20024;-78
2024/02/09 06:39:09;;;;;;;19.52;5.07;;;;;;;9.47;89.41;97976.13;3144662;23;20162;-78
2024/02/09 06:40:22;;;;;;;12.98;4.55;;;;;;;9.47;89.35;97972.69;3144785;23;20024;-78
2024/02/09 06:41:37;;;;;;;8.02;5.60;;;;;;;9.46;89.46;97971.84;3143977;22;20016;-78
2024/02/09 06:42:51;;;;;;;11.50;4.22;;;;;;;9.45;89.46;97970.16;3145130;23;20075;-79
2024/02/09 06:44:06;;;;;;;17.50;4.75;;;;;;;9.46;89.41;97961.44;3144451;23;20024;-79
2024/02/09 06:45:21;;;;;;;21.75;6.07;;;;;;;9.47;89.48;97962.25;3144452;22;20361;-78
2024/02/09 06:46:35;;;;;;;10.73;5.60;;;;;;;9.46;89.39;97957.97;3143694;23;20047;-78
2024/02/09 06:47:49;;;;;;;12.93;4.70;;;;;;;9.47;89.45;97957.06;3145056;23;20035;-79
2024/02/09 06:49:03;;;;;;;10.30;5.10;;;;;;;9.46;89.37;97956.22;3144246;22;20095;-78
2024/02/09 06:50:21;;;;;;;7.82;4.05;;;;;;;9.46;89.36;97951.00;3144643;23;20020;-79
2024/02/09 06:51:36;;;;;;;11.70;5.85;;;;;;;9.46;89.51;97960.59;3144311;23;20103;-78
2024/02/09 06:52:49;;;;;;;14.35;5.60;;;;;;;9.46;89.31;97957.97;3144847;22;20111;-79
2024/02/09 06:54:04;;;;;;;7.28;4.50;;;;;;;9.47;89.48;97964.88;3144517;23;20410;-78
2024/02/09 06:55:19;;;;;;;6.95;4.28;;;;;;;9.47;89.36;97964.88;3144907;23;20028;-79
2024/02/09 06:56:33;;;;;;;10.73;5.00;;;;;;;9.47;89.44;97963.09;3144493;23;20020;-78
2024/02/09 06:57:47;;;;;;;7.20;4.00;;;;;;;9.46;89.37;97961.44;3144354;22;20020;-80
2024/02/09 06:59:04;;;;;;;12.27;4.03;;;;;;;9.46;89.44;97958.81;3145291;23;20103;-78
2024/02/09 07:00:19;;;;;;;9.10;4.53;;;;;;;9.46;89.31;97961.44;3144660;23;20020;-77
2024/02/09 07:01:34;;;;;;;11.15;5.20;;;;;;;9.47;89.45;97957.88;3144543;22;20482;-78
2024/02/09 07:02:48;;;;;;;10.13;3.85;;;;;;;9.47;89.25;97957.06;3144484;23;20027;-78
2024/02/09 07:04:06;;;;;;;12.38;4.15;;;;;;;9.47;89.43;97957.06;3145077;23;20074;-78
2024/02/09 07:05:19;;;;;;;13.60;4.45;;;;;;;9.47;89.50;97957.88;3144032;22;20456;-77
2024/02/09 07:06:34;;;;;;;11.75;4.32;;;;;;;9.48;89.31;97959.59;3145400;23;20080;-78
2024/02/09 07:07:49;;;;;;;8.90;4.55;;;;;;;9.49;89.48;97950.88;3144568;22;20020;-77
2024/02/09 07:09:07;;;;;;;8.98;5.68;;;;;;;9.50;89.45;97951.69;3144253;22;20016;-78
2024/02/09 07:10:22;;;;;;;10.88;5.47;;;;;;;9.51;89.39;97958.59;3144272;23;20020;-79
2024/02/09 07:11:36;;;;;;;16.20;7.80;;;;;;;9.53;89.40;97948.97;3145187;23;20355;-79
2024/02/09 07:12:53;;;;;;;12.57;4.07;;;;;;;9.55;89.44;97954.94;3144138;22;20024;-79
2024/02/09 07:14:08;;;;;;;11.15;4.45;;;;;;;9.56;89.39;97952.25;3145265;23;20028;-79
2024/02/09 07:15:21;;;;;;;13.35;4.30;;;;;;;9.56;89.34;97941.84;3144290;23;20026;-80
2024/02/09 07:16:35;;;;;;;13.05;5.93;;;;;;;9.58;89.35;97947.84;3144846;23;20064;-77
2024/02/09 07:17:50;;;;;;;8.88;4.68;;;;;;;9.60;89.40;97948.59;3143651;22;20091;-79
2024/02/09 07:19:05;;;;;;;13.90;4.85;;;;;;;9.62;89.34;97953.72;3145380;23;20098;-78
2024/02/09 07:20:19;;;;;;;11.07;4.13;;;;;;;9.65;89.38;97950.13;3144375;23;20329;-78
2024/02/09 07:21:33;;;;;;;8.65;3.97;;;;;;;9.65;89.34;97956.19;3144244;22;20107;-78
2024/02/09 07:22:47;;;;;;;10.35;4.28;;;;;;;9.68;89.28;97960.38;3144789;23;20024;-78
2024/02/09 07:24:01;;;;;;;6.45;3.30;;;;;;;9.70;89.23;97953.34;3145218;23;20031;-79
2024/02/09 07:25:15;;;;;;;12.13;3.97;;;;;;;9.73;89.19;97958.41;3143584;22;20023;-79
2024/02/09 07:26:31;;;;;;;16.25;5.22;;;;;;;9.74;89.12;97945.31;3145110;23;20347;-79
2024/02/09 07:27:44;;;;;;;9.45;6.05;;;;;;;9.76;89.01;97947.88;3144421;23;20024;-79
2024/02/09 07:28:59;;;;;;;5.93;3.55;;;;;;;9.81;89.19;97958.91;3143859;22;20083;-78
2024/02/09 07:30:15;;;;;;;9.18;4.22;;;;;;;9.83;89.13;97960.53;3144658;23;20028;-78
2024/02/09 07:31:29;;;;;;;7.65;3.58;;;;;;;9.86;88.94;97950.84;3144495;23;20020;-78
2024/02/09 07:32:43;;;;;;;11.88;4.25;;;;;;;9.89;88.72;97943.75;3144842;22;20024;-78
2024/02/09 07:33:57;;;;;;;7.85;3.53;;;;;;;9.94;88.79;97953.91;3145086;23;20043;-78
2024/02/09 07:35:11;;;;;;;7.15;3.42;;;;;;;9.97;88.83;97949.41;3145131;23;20076;-77
2024/02/09 07:36:28;;;;;;;6.57;3.58;;;;;;;9.99;88.65;97937.16;3144263;22;20028;-79
2024/02/09 07:37:41;;;;;;;6.25;3.83;;;;;;;10.01;88.48;97943.13;3144698;22;20632;-79
2024/02/09 07:38:57;;;;;;;8.55;4.13;;;;;;;10.03;88.41;97949.09;3144770;23;20024;-78
2024/02/09 07:40:16;;;;;;;6.93;3.25;;;;;;;10.07;87.81;97942.00;3144893;22;20539;-79
2024/02/09 07:41:32;;;;;;;6.25;3.10;;;;;;;10.12;87.86;97939.13;3143804;22;20043;-78